createdAt,value
2024-03-04T00:00:56.280Z,95314.59
2024-03-04T00:03:53.271Z,95316.47
2024-03-04T00:06:50.387Z,95315.00
2024-03-04T00:09:47.264Z,95312.25
2024-03-04T00:12:45.738Z,95316.88
2024-03-04T00:15:43.515Z,95325.50
2024-03-04T00:18:41.893Z,95320.47
2024-03-04T00:21:39.106Z,95324.34
2024-03-04T00:24:36.241Z,95327.69
2024-03-04T00:27:33.793Z,95325.06
2024-03-04T00:30:30.871Z,95323.59
2024-03-04T00:33:27.748Z,95329.66
2024-03-04T00:36:27.732Z,95330.56
2024-03-04T00:39:24.618Z,95332.50
2024-03-04T00:42:21.517Z,95338.31
2024-03-04T00:45:18.456Z,95326.81
2024-03-04T00:48:15.437Z,95340.41
2024-03-04T00:51:16.291Z,95331.25
2024-03-04T00:54:13.186Z,95334.91
2024-03-04T00:57:10.674Z,95338.50
2024-03-04T01:00:15.406Z,95347.53
2024-03-04T01:03:12.453Z,95328.56
2024-03-04T01:06:09.308Z,95342.44
2024-03-04T01:09:06.182Z,95345.97
2024-03-04T01:12:03.156Z,95341.75
2024-03-04T01:15:00.288Z,95343.13
2024-03-04T01:17:57.956Z,95347.28
2024-03-04T01:20:55.696Z,95343.44
2024-03-04T01:23:53.902Z,95352.16
2024-03-04T01:26:53.630Z,95359.72
2024-03-04T01:29:50.472Z,95352.47
2024-03-04T01:32:47.685Z,95361.09
2024-03-04T01:35:44.557Z,95368.94
2024-03-04T01:38:42.748Z,95371.50
2024-03-04T01:41:39.646Z,95368.16
2024-03-04T01:44:37.442Z,95367.44
2024-03-04T01:47:37.214Z,95375.88
2024-03-04T01:50:38.893Z,95381.16
2024-03-04T01:53:36.050Z,95380.22
2024-03-04T01:56:33.142Z,95373.22
2024-03-04T01:59:30.474Z,95378.16
2024-03-04T02:02:27.505Z,95383.22
2024-03-04T02:05:24.456Z,95384.59
2024-03-04T02:08:22.359Z,95388.75
2024-03-04T02:11:20.350Z,95385.38
2024-03-04T02:14:17.280Z,95389.34
2024-03-04T02:17:15.830Z,95385.09
2024-03-04T02:20:16.579Z,95386.81
2024-03-04T02:23:13.862Z,95392.13
2024-03-04T02:26:10.820Z,95383.69
2024-03-04T02:29:07.690Z,95384.22
2024-03-04T02:32:05.121Z,95389.75
2024-03-04T02:35:09.087Z,95388.84
2024-03-04T02:38:06.943Z,95393.63
2024-03-04T02:41:05.643Z,95396.97
2024-03-04T02:44:02.583Z,95395.38
2024-03-04T02:47:00.138Z,95392.03
2024-03-04T02:49:57.429Z,95400.16
2024-03-04T02:52:54.730Z,95392.53
2024-03-04T02:55:51.609Z,95402.94
2024-03-04T02:58:48.445Z,95403.59
2024-03-04T03:01:49.388Z,95417.97
2024-03-04T03:04:47.265Z,95411.13
2024-03-04T03:07:44.163Z,95423.09
2024-03-04T03:10:41.216Z,95423.75
2024-03-04T03:13:38.590Z,95423.72
2024-03-04T03:16:35.613Z,95425.28
2024-03-04T03:19:32.586Z,95432.38
2024-03-04T03:22:30.376Z,95431.94
2024-03-04T03:25:27.602Z,95434.47
2024-03-04T03:28:24.619Z,95447.91
2024-03-04T03:31:22.354Z,95438.88
2024-03-04T03:34:19.270Z,95435.97
2024-03-04T03:37:16.203Z,95440.41
2024-03-04T03:40:13.881Z,95434.84
2024-03-04T03:43:10.773Z,95440.75
2024-03-04T03:46:07.741Z,95452.81
2024-03-04T03:49:04.704Z,95449.59
2024-03-04T03:52:01.625Z,95452.16
2024-03-04T03:54:59.146Z,95451.50
2024-03-04T03:57:58.611Z,95453.63
2024-03-04T04:00:56.486Z,95458.03
2024-03-04T04:03:53.401Z,95464.50
2024-03-04T04:06:50.268Z,95457.97
2024-03-04T04:09:47.091Z,95453.75
2024-03-04T04:12:44.064Z,95460.88
2024-03-04T04:15:40.933Z,95456.16
2024-03-04T04:18:37.861Z,95468.06
2024-03-04T04:21:34.980Z,95467.47
2024-03-04T04:24:33.016Z,95464.84
2024-03-04T04:27:29.916Z,95468.56
2024-03-04T04:30:27.488Z,95467.69
2024-03-04T04:33:24.357Z,95473.97
2024-03-04T04:36:23.813Z,95482.53
2024-03-04T04:39:20.923Z,95491.63
2024-03-04T04:42:17.799Z,95488.75
2024-03-04T04:45:14.728Z,95495.84
2024-03-04T04:48:11.695Z,95499.06
2024-03-04T04:51:08.633Z,95501.28
2024-03-04T04:54:06.572Z,95497.47
2024-03-04T04:57:03.483Z,95500.94
2024-03-04T05:00:00.382Z,95511.28
2024-03-04T05:02:57.256Z,95514.81
2024-03-04T05:05:54.118Z,95511.31
2024-03-04T05:08:51.755Z,95509.44
2024-03-04T05:11:48.616Z,95524.31
2024-03-04T05:14:48.579Z,95521.63
2024-03-04T05:17:45.662Z,95527.50
2024-03-04T05:20:51.346Z,95522.75
2024-03-04T05:23:52.924Z,95533.44
2024-03-04T05:26:49.794Z,95532.91
2024-03-04T05:29:46.821Z,95539.69
2024-03-04T05:32:44.852Z,95537.78
2024-03-04T05:35:41.914Z,95545.81
2024-03-04T05:38:38.784Z,95550.16
2024-03-04T05:41:35.755Z,95548.88
2024-03-04T05:44:33.034Z,95562.47
2024-03-04T05:47:29.914Z,95559.25
2024-03-04T05:50:28.015Z,95565.03
2024-03-04T05:53:26.628Z,95571.44
2024-03-04T05:56:23.675Z,95569.09
2024-03-04T05:59:20.654Z,95578.31
2024-03-04T06:02:17.574Z,95584.09
2024-03-04T06:05:15.013Z,95579.34
2024-03-04T06:08:11.951Z,95583.59
2024-03-04T06:11:08.860Z,95586.44
2024-03-04T06:14:05.897Z,95583.44
2024-03-04T06:17:02.775Z,95585.66
2024-03-04T06:19:59.620Z,95597.16
2024-03-04T06:22:56.574Z,95600.28
2024-03-04T06:25:53.807Z,95604.91
2024-03-04T06:28:50.679Z,95612.41
2024-03-04T06:31:47.551Z,95608.50
2024-03-04T06:34:44.504Z,95615.34
2024-03-04T06:37:41.495Z,95612.69
2024-03-04T06:40:38.482Z,95615.06
2024-03-04T06:43:35.540Z,95613.78
2024-03-04T06:46:34.361Z,95617.00
2024-03-04T06:49:31.411Z,95612.50
2024-03-04T06:52:28.342Z,95615.94
2024-03-04T06:55:25.217Z,95611.31
2024-03-04T06:58:23.642Z,95621.22
2024-03-04T07:01:20.642Z,95618.44
2024-03-04T07:04:17.727Z,95620.78
2024-03-04T07:07:14.658Z,95628.88
2024-03-04T07:10:11.790Z,95622.44
2024-03-04T07:13:08.811Z,95632.31
2024-03-04T07:16:08.869Z,95642.53
2024-03-04T07:19:05.803Z,95634.44
2024-03-04T07:22:03.142Z,95633.66
2024-03-04T07:25:00.207Z,95629.78
2024-03-04T07:27:57.353Z,95629.44
2024-03-04T07:30:54.266Z,95633.06
2024-03-04T07:33:51.121Z,95629.91
2024-03-04T07:36:47.995Z,95629.81
2024-03-04T07:39:44.875Z,95629.91
2024-03-04T07:42:41.727Z,95630.28
2024-03-04T07:45:38.744Z,95633.88
2024-03-04T07:48:35.645Z,95633.88
2024-03-04T07:51:32.497Z,95627.38
2024-03-04T07:54:29.402Z,95632.22
2024-03-04T07:57:26.335Z,95634.91
2024-03-04T08:00:23.436Z,95632.00
2024-03-04T08:03:20.308Z,95627.63
2024-03-04T08:06:17.211Z,95633.81
2024-03-04T08:09:15.606Z,95632.22
2024-03-04T08:12:12.744Z,95631.47
2024-03-04T08:15:10.132Z,95631.06
2024-03-04T08:18:10.791Z,95632.34
2024-03-04T08:21:08.887Z,95635.59
2024-03-04T08:24:06.136Z,95639.16
2024-03-04T08:27:03.583Z,95639.72
2024-03-04T08:30:00.596Z,95637.47
2024-03-04T08:32:57.525Z,95641.16
2024-03-04T08:35:54.429Z,95633.06
2024-03-04T08:38:51.305Z,95629.56
2024-03-04T08:41:49.493Z,95635.47
2024-03-04T08:44:46.506Z,95639.09
2024-03-04T08:47:43.881Z,95623.34
2024-03-04T08:50:40.783Z,95626.66
2024-03-04T08:53:37.658Z,95625.38
2024-03-04T08:56:35.143Z,95622.59
2024-03-04T08:59:32.308Z,95625.72
2024-03-04T09:02:29.151Z,95620.34
2024-03-04T09:05:26.018Z,95617.84
2024-03-04T09:08:22.910Z,95621.72
2024-03-04T09:11:19.962Z,95620.66
2024-03-04T09:14:16.855Z,95620.22
2024-03-04T09:17:13.908Z,95620.09
2024-03-04T09:20:11.958Z,95606.50
2024-03-04T09:23:09.089Z,95610.16
2024-03-04T09:26:10.397Z,95615.25
2024-03-04T09:29:07.365Z,95614.53
2024-03-04T09:32:04.612Z,95620.38
2024-03-04T09:35:01.685Z,95628.88
2024-03-04T09:37:58.550Z,95631.28
2024-03-04T09:40:57.385Z,95634.50
2024-03-04T09:43:55.040Z,95635.88
2024-03-04T09:46:53.642Z,95645.03
2024-03-04T09:49:54.291Z,95637.53
2024-03-04T09:52:51.988Z,95645.97
2024-03-04T09:55:49.608Z,95646.38
2024-03-04T09:58:46.937Z,95642.91
2024-03-04T10:01:46.393Z,95653.03
2024-03-04T10:04:44.817Z,95649.09
2024-03-04T10:07:42.499Z,95642.44
2024-03-04T10:10:39.552Z,95658.81
2024-03-04T10:13:36.950Z,95662.97
2024-03-04T10:16:33.909Z,95664.00
2024-03-04T10:19:30.962Z,95658.09
2024-03-04T10:22:39.985Z,95665.47
2024-03-04T10:25:37.419Z,95674.16
2024-03-04T10:28:42.439Z,95658.66
2024-03-04T10:31:53.083Z,95655.41
2024-03-04T10:34:50.068Z,95653.00
2024-03-04T10:37:48.795Z,95656.28
2024-03-04T10:40:48.039Z,95670.22
2024-03-04T10:43:46.045Z,95670.47
2024-03-04T10:46:44.844Z,95669.44
2024-03-04T10:49:42.155Z,95681.88
2024-03-04T10:52:39.398Z,95676.06
2024-03-04T10:55:36.320Z,95665.16
2024-03-04T10:58:34.732Z,95670.97
2024-03-04T11:01:33.586Z,95677.03
2024-03-04T11:04:31.048Z,95663.50
2024-03-04T11:07:31.769Z,95668.34
2024-03-04T11:10:34.329Z,95671.06
2024-03-04T11:13:49.905Z,95671.72
2024-03-04T11:17:04.624Z,95662.22
2024-03-04T11:20:04.574Z,95674.06
2024-03-04T11:23:03.630Z,95679.50
2024-03-04T11:26:02.233Z,95682.38
2024-03-04T11:29:01.822Z,95683.38
2024-03-04T11:32:00.700Z,95688.69
2024-03-04T11:35:10.862Z,95692.97
2024-03-04T11:38:08.199Z,95689.94
2024-03-04T11:41:05.885Z,95691.66
2024-03-04T11:44:02.871Z,95688.88
2024-03-04T11:46:59.814Z,95690.72
2024-03-04T11:49:58.075Z,95696.75
2024-03-04T11:52:58.044Z,95693.44
2024-03-04T11:55:55.976Z,95681.50
2024-03-04T11:58:56.516Z,95691.69
2024-03-04T12:01:53.880Z,95695.44
2024-03-04T12:04:51.920Z,95699.81
2024-03-04T12:07:48.983Z,95694.50
2024-03-04T12:10:46.015Z,95689.81
2024-03-04T12:13:42.910Z,95690.63
2024-03-04T12:16:40.408Z,95689.38
2024-03-04T12:19:37.443Z,95689.22
2024-03-04T12:22:35.263Z,95689.47
2024-03-04T12:25:32.396Z,95680.09
2024-03-04T12:28:29.683Z,95678.84
2024-03-04T12:31:27.458Z,95668.75
2024-03-04T12:34:29.096Z,95667.22
2024-03-04T12:37:26.039Z,95663.88
2024-03-04T12:40:25.567Z,95669.78
2024-03-04T12:43:22.542Z,95665.06
2024-03-04T12:46:20.226Z,95671.34
2024-03-04T12:49:17.749Z,95658.59
2024-03-04T12:52:14.788Z,95659.03
2024-03-04T12:55:19.754Z,95664.31
2024-03-04T12:58:17.132Z,95669.44
2024-03-04T13:01:19.269Z,95663.38
2024-03-04T13:04:16.315Z,95665.66
2024-03-04T13:07:13.289Z,95669.75
2024-03-04T13:10:12.419Z,95670.00
2024-03-04T13:13:09.634Z,95688.47
2024-03-04T13:16:06.951Z,95677.41
2024-03-04T13:19:04.066Z,95680.03
2024-03-04T13:22:00.925Z,95689.69
2024-03-04T13:24:57.949Z,95671.94
2024-03-04T13:27:55.333Z,95659.88
2024-03-04T13:30:52.230Z,95669.38
2024-03-04T13:33:49.322Z,95668.13
2024-03-04T13:36:46.308Z,95666.94
2024-03-04T13:39:43.716Z,95667.59
2024-03-04T13:42:42.217Z,95663.06
2024-03-04T13:45:39.236Z,95670.69
2024-03-04T13:48:36.935Z,95671.25
2024-03-04T13:51:33.907Z,95677.66
2024-03-04T13:54:31.499Z,95672.53
2024-03-04T13:57:28.471Z,95674.91
2024-03-04T14:00:25.363Z,95678.75
2024-03-04T14:03:22.878Z,95672.31
2024-03-04T14:06:19.779Z,95687.06
2024-03-04T14:09:17.341Z,95677.91
2024-03-04T14:12:14.204Z,95677.31
2024-03-04T14:15:11.238Z,95681.47
2024-03-04T14:18:08.162Z,95679.00
2024-03-04T14:21:05.578Z,95677.09
2024-03-04T14:24:02.632Z,95686.56
2024-03-04T14:27:04.599Z,95678.19
2024-03-04T14:30:01.492Z,95687.69
2024-03-04T14:33:01.101Z,95690.09
2024-03-04T14:35:58.133Z,95687.53
2024-03-04T14:38:55.555Z,95693.69
2024-03-04T14:41:52.425Z,95695.94
2024-03-04T14:44:49.584Z,95686.91
2024-03-04T14:47:46.484Z,95697.66
2024-03-04T14:50:44.867Z,95700.34
2024-03-04T14:53:43.093Z,95700.78
2024-03-04T14:56:40.067Z,95691.69
2024-03-04T14:59:37.642Z,95698.31
2024-03-04T15:02:35.689Z,95700.50
2024-03-04T15:05:34.563Z,95700.47
2024-03-04T15:08:31.746Z,95709.34
2024-03-04T15:11:28.895Z,95715.38
2024-03-04T15:14:25.811Z,95714.84
2024-03-04T15:17:24.358Z,95716.72
2024-03-04T15:20:22.490Z,95720.34
2024-03-04T15:23:19.445Z,95721.06
2024-03-04T15:26:16.310Z,95726.75
2024-03-04T15:29:13.239Z,95734.38
2024-03-04T15:32:12.211Z,95736.59
2024-03-04T15:35:11.547Z,95744.19
2024-03-04T15:38:08.729Z,95738.28
2024-03-04T15:41:05.603Z,95741.09
2024-03-04T15:44:02.463Z,95744.81
2024-03-04T15:47:00.035Z,95747.16
2024-03-04T15:49:57.302Z,95752.03
2024-03-04T15:52:54.213Z,95750.13
2024-03-04T15:55:51.236Z,95753.00
2024-03-04T15:58:48.170Z,95755.78
2024-03-04T16:01:45.169Z,95761.94
2024-03-04T16:10:51.894Z,95770.91
2024-03-04T16:13:48.992Z,95772.31
2024-03-04T16:16:45.936Z,95774.75
2024-03-04T16:19:43.843Z,95778.22
2024-03-04T16:22:40.849Z,95778.00
2024-03-04T16:25:39.176Z,95777.44
2024-03-04T16:31:35.155Z,95781.13
2024-03-04T16:34:32.166Z,95781.75
2024-03-04T16:37:32.002Z,95792.34
2024-03-04T16:40:30.397Z,95794.06
2024-03-04T16:43:27.310Z,95795.97
2024-03-04T16:46:24.302Z,95806.22
2024-03-04T16:49:21.279Z,95813.13
2024-03-04T16:52:18.286Z,95823.97
2024-03-04T16:55:15.371Z,95825.91
2024-03-04T16:58:12.439Z,95827.88
2024-03-04T17:01:09.462Z,95839.28
2024-03-04T17:04:06.441Z,95829.44
2024-03-04T17:07:03.701Z,95832.19
2024-03-04T17:10:00.705Z,95836.44
2024-03-04T17:12:57.897Z,95836.72
2024-03-04T17:15:54.811Z,95843.84
2024-03-04T17:18:51.737Z,95836.78
2024-03-04T17:21:48.635Z,95843.28
2024-03-04T17:24:46.481Z,95853.25
2024-03-04T17:27:43.362Z,95856.09
2024-03-04T17:30:40.209Z,95863.03
2024-03-04T17:33:37.036Z,95863.34
2024-03-04T17:36:43.320Z,95863.31
2024-03-04T17:39:40.713Z,95873.09
2024-03-04T17:42:37.747Z,95884.25
2024-03-04T17:45:35.010Z,95882.50
2024-03-04T17:48:34.487Z,95887.69
2024-03-04T17:51:31.322Z,95897.38
2024-03-04T17:54:28.303Z,95891.63
2024-03-04T17:57:25.128Z,95901.13
2024-03-04T18:00:22.135Z,95902.13
2024-03-04T18:03:19.002Z,95902.19
2024-03-04T18:06:15.878Z,95900.16
2024-03-04T18:09:12.839Z,95910.03
2024-03-04T18:12:10.737Z,95912.25
2024-03-04T18:15:08.593Z,95913.34
2024-03-04T18:18:05.751Z,95918.28
2024-03-04T18:21:03.081Z,95917.38
2024-03-04T18:24:00.236Z,95916.28
2024-03-04T18:26:58.163Z,95925.22
2024-03-04T18:29:55.019Z,95924.31
2024-03-04T18:32:51.952Z,95923.22
2024-03-04T18:35:48.821Z,95923.16
2024-03-04T18:38:45.701Z,95918.31
2024-03-04T18:41:42.651Z,95921.47
2024-03-04T18:44:44.346Z,95931.19
2024-03-04T18:47:41.209Z,95921.06
2024-03-04T18:50:39.430Z,95924.59
2024-03-04T18:53:36.771Z,95928.72
2024-03-04T18:56:33.656Z,95930.13
2024-03-04T18:59:30.534Z,95921.50
2024-03-04T19:02:28.400Z,95924.00
2024-03-04T19:05:25.289Z,95929.16
2024-03-04T19:08:22.126Z,95929.91
2024-03-04T19:11:19.524Z,95926.25
2024-03-04T19:14:16.478Z,95932.28
2024-03-04T19:17:13.360Z,95931.66
2024-03-04T19:20:13.006Z,95937.63
2024-03-04T19:23:09.968Z,95937.72
2024-03-04T19:26:19.539Z,95935.41
2024-03-04T19:29:16.677Z,95934.53
2024-03-04T19:32:13.527Z,95932.50
2024-03-04T19:35:12.845Z,95945.66
2024-03-04T19:38:09.836Z,95942.16
2024-03-04T19:41:15.925Z,95945.09
2024-03-04T19:44:12.840Z,95943.28
2024-03-04T19:47:09.712Z,95940.09
2024-03-04T19:50:07.240Z,95944.31
2024-03-04T19:53:04.746Z,95946.56
2024-03-04T19:56:01.709Z,95953.16
2024-03-04T19:58:58.867Z,95950.59
2024-03-04T20:01:55.867Z,95946.19
2024-03-04T20:04:52.908Z,95950.13
2024-03-04T20:07:49.887Z,95954.09
2024-03-04T20:10:46.973Z,95953.91
2024-03-04T20:13:45.389Z,95953.47
2024-03-04T20:16:44.353Z,95950.59
2024-03-04T20:19:41.470Z,95951.50
2024-03-04T20:22:38.437Z,95953.72
2024-03-04T20:25:35.401Z,95957.13
2024-03-04T20:28:34.551Z,95959.28
2024-03-04T20:31:31.562Z,95959.13
2024-03-04T20:34:28.534Z,95950.56
2024-03-04T20:37:26.764Z,95957.34
2024-03-04T20:40:23.701Z,95957.00
2024-03-04T20:43:20.614Z,95964.41
2024-03-04T20:46:17.727Z,95963.66
2024-03-04T20:49:14.673Z,95964.72
2024-03-04T20:52:12.271Z,95968.75
2024-03-04T20:55:13.865Z,95967.53
2024-03-04T20:58:10.757Z,95970.53
2024-03-04T21:01:07.696Z,95969.00
2024-03-04T21:04:04.848Z,95963.88
2024-03-04T21:07:02.351Z,95964.63
2024-03-04T21:09:59.199Z,95975.91
2024-03-04T21:12:57.496Z,95965.88
2024-03-04T21:15:54.522Z,95966.31
2024-03-04T21:18:51.347Z,95971.44
2024-03-04T21:21:48.366Z,95970.44
2024-03-04T21:24:45.421Z,95968.44
2024-03-04T21:27:42.796Z,95966.50
2024-03-04T21:30:39.801Z,95965.50
2024-03-04T21:33:36.685Z,95977.16
2024-03-04T21:36:33.547Z,95974.16
2024-03-04T21:39:30.459Z,95971.84
2024-03-04T21:42:28.675Z,95975.28
2024-03-04T21:45:25.925Z,95971.66
2024-03-04T21:48:24.324Z,95979.72
2024-03-04T21:51:21.289Z,95976.41
2024-03-04T21:54:18.187Z,95982.50
2024-03-04T21:57:15.093Z,95982.59
2024-03-04T22:00:16.137Z,95978.41
2024-03-04T22:03:13.578Z,95987.53
2024-03-04T22:06:22.445Z,95985.03
2024-03-04T22:09:19.356Z,95988.19
2024-03-04T22:12:16.274Z,95994.97
2024-03-04T22:15:13.504Z,95994.69
2024-03-04T22:18:10.382Z,95984.66
2024-03-04T22:21:11.067Z,95989.47
2024-03-04T22:24:08.686Z,95976.44
2024-03-04T22:27:06.180Z,95984.66
2024-03-04T22:30:03.256Z,95988.16
2024-03-04T22:33:00.847Z,95976.53
2024-03-04T22:35:59.342Z,95978.91
2024-03-04T22:38:56.219Z,95980.03
2024-03-04T22:41:53.070Z,95984.78
2024-03-04T22:44:49.968Z,95995.41
2024-03-04T22:47:50.772Z,95991.56
2024-03-04T22:50:48.122Z,95991.56
2024-03-04T22:53:44.966Z,95992.53
2024-03-04T22:56:42.190Z,95991.41
2024-03-04T22:59:40.712Z,95998.78
2024-03-04T23:02:38.562Z,95991.31
2024-03-04T23:05:35.403Z,95982.94
2024-03-04T23:08:33.199Z,95986.47
2024-03-04T23:11:30.092Z,95992.53
2024-03-04T23:14:27.323Z,95993.94
2024-03-04T23:17:25.524Z,95995.50
2024-03-04T23:20:24.360Z,95996.84
2024-03-04T23:23:22.278Z,95999.16
2024-03-04T23:26:19.391Z,96005.81
2024-03-04T23:29:16.318Z,96001.25
2024-03-04T23:32:13.182Z,96006.72
2024-03-04T23:35:10.697Z,96007.09
2024-03-04T23:38:07.771Z,96016.31
2024-03-04T23:41:04.752Z,96013.28
2024-03-04T23:44:01.724Z,96019.78
2024-03-04T23:46:58.698Z,96015.75
2024-03-04T23:49:55.864Z,96032.00
2024-03-04T23:52:52.797Z,96026.44
2024-03-04T23:55:49.738Z,96017.28
2024-03-04T23:58:46.685Z,96019.97
